sensor_id;sensor_type;location;lat;lon;timestamp;P1;durP1;ratioP1;P2;durP2;ratioP2
47617;SDS011;33336;36.728;-4.414;2023-06-24T00:01:20;16.60;;;5.60;;
47617;SDS011;33336;36.728;-4.414;2023-06-24T00:06:24;13.60;;;5.45;;
47617;SDS011;33336;36.728;-4.414;2023-06-24T00:11:29;16.50;;;5.53;;
47617;SDS011;33336;36.728;-4.414;2023-06-24T00:16:32;14.25;;;5.15;;
47617;SDS011;33336;36.728;-4.414;2023-06-24T00:21:36;17.63;;;5.30;;
47617;SDS011;33336;36.728;-4.414;2023-06-24T00:26:40;12.95;;;5.15;;
47617;SDS011;33336;36.728;-4.414;2023-06-24T00:31:44;13.38;;;5.50;;
47617;SDS011;33336;36.728;-4.414;2023-06-24T00:36:48;17.08;;;5.43;;
47617;SDS011;33336;36.728;-4.414;2023-06-24T00:41:52;12.20;;;4.88;;
47617;SDS011;33336;36.728;-4.414;2023-06-24T00:46:55;12.90;;;6.80;;
47617;SDS011;33336;36.728;-4.414;2023-06-24T00:51:59;16.40;;;5.20;;
47617;SDS011;33336;36.728;-4.414;2023-06-24T00:57:02;10.93;;;5.30;;
47617;SDS011;33336;36.728;-4.414;2023-06-24T01:02:06;15.32;;;5.55;;
47617;SDS011;33336;36.728;-4.414;2023-06-24T01:07:11;15.30;;;5.13;;
47617;SDS011;33336;36.728;-4.414;2023-06-24T01:12:15;22.25;;;6.03;;
47617;SDS011;33336;36.728;-4.414;2023-06-24T01:17:19;12.80;;;5.22;;
47617;SDS011;33336;36.728;-4.414;2023-06-24T01:28:05;14.32;;;5.80;;
47617;SDS011;33336;36.728;-4.414;2023-06-24T01:33:32;15.50;;;5.18;;
47617;SDS011;33336;36.728;-4.414;2023-06-24T01:38:43;17.20;;;5.75;;
47617;SDS011;33336;36.728;-4.414;2023-06-24T01:43:50;15.73;;;5.60;;
47617;SDS011;33336;36.728;-4.414;2023-06-24T01:48:57;13.40;;;5.10;;
47617;SDS011;33336;36.728;-4.414;2023-06-24T01:54:06;16.63;;;5.20;;
47617;SDS011;33336;36.728;-4.414;2023-06-24T01:59:13;20.10;;;5.90;;
47617;SDS011;33336;36.728;-4.414;2023-06-24T02:04:20;13.20;;;4.97;;
47617;SDS011;33336;36.728;-4.414;2023-06-24T02:09:25;11.40;;;5.22;;
47617;SDS011;33336;36.728;-4.414;2023-06-24T02:14:32;13.93;;;5.28;;
47617;SDS011;33336;36.728;-4.414;2023-06-24T02:19:38;11.27;;;6.07;;
47617;SDS011;33336;36.728;-4.414;2023-06-24T02:24:44;10.60;;;4.45;;
47617;SDS011;33336;36.728;-4.414;2023-06-24T02:29:47;16.00;;;5.30;;
47617;SDS011;33336;36.728;-4.414;2023-06-24T02:34:53;10.65;;;4.35;;
47617;SDS011;33336;36.728;-4.414;2023-06-24T02:39:56;14.60;;;5.28;;
47617;SDS011;33336;36.728;-4.414;2023-06-24T02:45:00;16.50;;;5.80;;
47617;SDS011;33336;36.728;-4.414;2023-06-24T02:50:05;14.73;;;5.80;;
47617;SDS011;33336;36.728;-4.414;2023-06-24T02:55:11;20.13;;;6.22;;
47617;SDS011;33336;36.728;-4.414;2023-06-24T03:00:14;24.50;;;5.72;;
47617;SDS011;33336;36.728;-4.414;2023-06-24T03:05:20;24.65;;;6.97;;
47617;SDS011;33336;36.728;-4.414;2023-06-24T03:10:26;12.57;;;5.00;;
47617;SDS011;33336;36.728;-4.414;2023-06-24T03:15:30;13.10;;;6.25;;
47617;SDS011;33336;36.728;-4.414;2023-06-24T03:20:34;14.00;;;5.50;;
47617;SDS011;33336;36.728;-4.414;2023-06-24T03:25:40;14.00;;;5.05;;
47617;SDS011;33336;36.728;-4.414;2023-06-24T03:30:42;10.90;;;5.10;;
47617;SDS011;33336;36.728;-4.414;2023-06-24T03:35:47;11.68;;;5.80;;
47617;SDS011;33336;36.728;-4.414;2023-06-24T03:40:50;10.95;;;4.95;;
47617;SDS011;33336;36.728;-4.414;2023-06-24T03:45:53;10.82;;;4.75;;
47617;SDS011;33336;36.728;-4.414;2023-06-24T03:50:57;17.20;;;4.88;;
47617;SDS011;33336;36.728;-4.414;2023-06-24T03:56:00;13.30;;;4.45;;
47617;SDS011;33336;36.728;-4.414;2023-06-24T04:01:03;11.98;;;5.32;;
47617;SDS011;33336;36.728;-4.414;2023-06-24T04:06:07;12.18;;;4.20;;
47617;SDS011;33336;36.728;-4.414;2023-06-24T04:11:10;12.35;;;5.28;;
47617;SDS011;33336;36.728;-4.414;2023-06-24T04:16:14;16.25;;;5.22;;
47617;SDS011;33336;36.728;-4.414;2023-06-24T04:21:18;8.25;;;4.20;;
47617;SDS011;33336;36.728;-4.414;2023-06-24T04:26:21;14.73;;;5.43;;
47617;SDS011;33336;36.728;-4.414;2023-06-24T04:31:23;16.27;;;5.43;;
47617;SDS011;33336;36.728;-4.414;2023-06-24T04:36:29;11.32;;;5.55;;
47617;SDS011;33336;36.728;-4.414;2023-06-24T04:41:32;13.48;;;4.57;;
47617;SDS011;33336;36.728;-4.414;2023-06-24T04:46:36;13.55;;;4.63;;
47617;SDS011;33336;36.728;-4.414;2023-06-24T04:51:41;12.52;;;4.88;;
47617;SDS011;33336;36.728;-4.414;2023-06-24T04:56:46;15.98;;;5.35;;
47617;SDS011;33336;36.728;-4.414;2023-06-24T05:01:50;13.95;;;5.47;;
47617;SDS011;33336;36.728;-4.414;2023-06-24T05:06:55;14.95;;;5.47;;
47617;SDS011;33336;36.728;-4.414;2023-06-24T05:11:58;16.45;;;5.25;;
47617;SDS011;33336;36.728;-4.414;2023-06-24T05:17:02;15.98;;;5.40;;
47617;SDS011;33336;36.728;-4.414;2023-06-24T05:22:06;16.30;;;5.22;;
47617;SDS011;33336;36.728;-4.414;2023-06-24T05:27:10;12.00;;;5.65;;
47617;SDS011;33336;36.728;-4.414;2023-06-24T05:32:12;11.55;;;5.15;;
47617;SDS011;33336;36.728;-4.414;2023-06-24T05:37:19;14.25;;;5.53;;
47617;SDS011;33336;36.728;-4.414;2023-06-24T05:42:22;10.48;;;5.32;;
47617;SDS011;33336;36.728;-4.414;2023-06-24T05:47:27;15.40;;;5.60;;
47617;SDS011;33336;36.728;-4.414;2023-06-24T05:52:31;12.90;;;5.25;;
47617;SDS011;33336;36.728;-4.414;2023-06-24T05:57:35;10.77;;;5.00;;
47617;SDS011;33336;36.728;-4.414;2023-06-24T06:02:37;16.08;;;5.18;;
47617;SDS011;33336;36.728;-4.414;2023-06-24T06:07:42;15.77;;;5.03;;
47617;SDS011;33336;36.728;-4.414;2023-06-24T06:12:45;12.50;;;6.22;;
47617;SDS011;33336;36.728;-4.414;2023-06-24T06:17:47;12.70;;;5.50;;
47617;SDS011;33336;36.728;-4.414;2023-06-24T06:22:52;13.55;;;4.57;;
47617;SDS011;33336;36.728;-4.414;2023-06-24T06:27:55;16.25;;;4.72;;
47617;SDS011;33336;36.728;-4.414;2023-06-24T06:32:58;16.42;;;5.68;;
47617;SDS011;33336;36.728;-4.414;2023-06-24T06:38:04;12.45;;;4.68;;
47617;SDS011;33336;36.728;-4.414;2023-06-24T06:43:07;11.95;;;4.43;;
47617;SDS011;33336;36.728;-4.414;2023-06-24T06:48:10;12.38;;;4.85;;
47617;SDS011;33336;36.728;-4.414;2023-06-24T06:53:15;20.77;;;5.32;;
47617;SDS011;33336;36.728;-4.414;2023-06-24T06:58:18;14.43;;;5.15;;
47617;SDS011;33336;36.728;-4.414;2023-06-24T07:03:20;10.65;;;4.40;;
47617;SDS011;33336;36.728;-4.414;2023-06-24T07:08:25;13.38;;;4.65;;
47617;SDS011;33336;36.728;-4.414;2023-06-24T07:13:28;13.07;;;4.50;;
47617;SDS011;33336;36.728;-4.414;2023-06-24T07:18:31;12.82;;;3.92;;
47617;SDS011;33336;36.728;-4.414;2023-06-24T07:23:35;13.77;;;4.57;;
47617;SDS011;33336;36.728;-4.414;2023-06-24T07:28:38;10.82;;;4.07;;
47617;SDS011;33336;36.728;-4.414;2023-06-24T07:33:41;13.82;;;4.57;;
47617;SDS011;33336;36.728;-4.414;2023-06-24T07:38:46;11.50;;;3.88;;
47617;SDS011;33336;36.728;-4.414;2023-06-24T07:43:49;8.70;;;3.72;;
47617;SDS011;33336;36.728;-4.414;2023-06-24T07:48:52;14.52;;;3.78;;
47617;SDS011;33336;36.728;-4.414;2023-06-24T07:53:57;9.32;;;3.65;;
47617;SDS011;33336;36.728;-4.414;2023-06-24T07:59:00;8.95;;;3.28;;
47617;SDS011;33336;36.728;-4.414;2023-06-24T08:04:03;8.45;;;3.95;;
47617;SDS011;33336;36.728;-4.414;2023-06-24T08:09:08;9.63;;;4.00;;
47617;SDS011;33336;36.728;-4.414;2023-06-24T08:14:11;10.70;;;3.15;;
47617;SDS011;33336;36.728;-4.414;2023-06-24T08:19:14;11.38;;;3.55;;
47617;SDS011;33336;36.728;-4.414;2023-06-24T08:24:18;13.32;;;4.07;;
47617;SDS011;33336;36.728;-4.414;2023-06-24T08:29:21;9.18;;;3.60;;
47617;SDS011;33336;36.728;-4.414;2023-06-24T08:34:24;8.68;;;3.20;;
47617;SDS011;33336;36.728;-4.414;2023-06-24T08:39:29;8.02;;;3.25;;
47617;SDS011;33336;36.728;-4.414;2023-06-24T08:44:32;7.40;;;2.75;;
47617;SDS011;33336;36.728;-4.414;2023-06-24T08:49:37;6.18;;;2.80;;
47617;SDS011;33336;36.728;-4.414;2023-06-24T08:54:50;11.48;;;4.22;;
47617;SDS011;33336;36.728;-4.414;2023-06-24T08:59:54;6.15;;;3.13;;
47617;SDS011;33336;36.728;-4.414;2023-06-24T09:04:57;10.50;;;3.53;;
47617;SDS011;33336;36.728;-4.414;2023-06-24T09:10:02;14.25;;;3.28;;
47617;SDS011;33336;36.728;-4.414;2023-06-24T09:15:05;6.57;;;2.97;;
47617;SDS011;33336;36.728;-4.414;2023-06-24T09:20:10;7.35;;;2.80;;
47617;SDS011;33336;36.728;-4.414;2023-06-24T09:25:17;8.63;;;3.75;;
47617;SDS011;33336;36.728;-4.414;2023-06-24T09:30:21;6.70;;;2.60;;
47617;SDS011;33336;36.728;-4.414;2023-06-24T09:35:25;5.28;;;2.80;;
47617;SDS011;33336;36.728;-4.414;2023-06-24T09:40:31;6.60;;;2.25;;
47617;SDS011;33336;36.728;-4.414;2023-06-24T09:45:38;6.65;;;3.10;;
47617;SDS011;33336;36.728;-4.414;2023-06-24T09:50:41;4.55;;;2.72;;
47617;SDS011;33336;36.728;-4.414;2023-06-24T09:55:46;6.40;;;2.95;;
47617;SDS011;33336;36.728;-4.414;2023-06-24T10:00:50;7.15;;;2.78;;
47617;SDS011;33336;36.728;-4.414;2023-06-24T10:05:54;5.53;;;2.40;;
47617;SDS011;33336;36.728;-4.414;2023-06-24T10:10:59;5.95;;;2.10;;
47617;SDS011;33336;36.728;-4.414;2023-06-24T10:16:02;7.88;;;2.75;;
47617;SDS011;33336;36.728;-4.414;2023-06-24T10:21:06;6.00;;;2.72;;
47617;SDS011;33336;36.728;-4.414;2023-06-24T10:26:20;6.88;;;2.60;;
47617;SDS011;33336;36.728;-4.414;2023-06-24T10:31:40;6.25;;;2.95;;
47617;SDS011;33336;36.728;-4.414;2023-06-24T10:36:54;3.08;;;2.22;;
47617;SDS011;33336;36.728;-4.414;2023-06-24T10:41:58;4.85;;;2.45;;
47617;SDS011;33336;36.728;-4.414;2023-06-24T10:47:29;5.18;;;2.40;;
47617;SDS011;33336;36.728;-4.414;2023-06-24T10:52:32;7.15;;;3.28;;
47617;SDS011;33336;36.728;-4.414;2023-06-24T10:57:41;7.25;;;2.70;;
47617;SDS011;33336;36.728;-4.414;2023-06-24T11:02:44;8.95;;;2.97;;
47617;SDS011;33336;36.728;-4.414;2023-06-24T11:07:47;4.55;;;2.47;;
47617;SDS011;33336;36.728;-4.414;2023-06-24T11:12:52;8.00;;;3.35;;
47617;SDS011;33336;36.728;-4.414;2023-06-24T11:17:55;12.27;;;3.22;;
47617;SDS011;33336;36.728;-4.414;2023-06-24T11:22:58;5.10;;;2.45;;
47617;SDS011;33336;36.728;-4.414;2023-06-24T11:28:03;8.23;;;2.80;;
47617;SDS011;33336;36.728;-4.414;2023-06-24T11:33:06;5.03;;;2.47;;
47617;SDS011;33336;36.728;-4.414;2023-06-24T11:38:09;6.45;;;2.72;;
47617;SDS011;33336;36.728;-4.414;2023-06-24T11:43:14;4.88;;;2.63;;
47617;SDS011;33336;36.728;-4.414;2023-06-24T11:48:18;7.10;;;2.35;;
47617;SDS011;33336;36.728;-4.414;2023-06-24T11:53:28;5.90;;;2.65;;
47617;SDS011;33336;36.728;-4.414;2023-06-24T11:58:35;4.85;;;2.72;;
47617;SDS011;33336;36.728;-4.414;2023-06-24T12:03:38;9.60;;;2.83;;
47617;SDS011;33336;36.728;-4.414;2023-06-24T12:08:43;3.80;;;2.35;;
47617;SDS011;33336;36.728;-4.414;2023-06-24T12:13:48;4.53;;;2.42;;
47617;SDS011;33336;36.728;-4.414;2023-06-24T12:18:51;5.68;;;2.60;;
47617;SDS011;33336;36.728;-4.414;2023-06-24T12:23:53;6.18;;;2.33;;
47617;SDS011;33336;36.728;-4.414;2023-06-24T12:28:58;9.90;;;2.63;;
47617;SDS011;33336;36.728;-4.414;2023-06-24T12:34:00;7.22;;;2.60;;
47617;SDS011;33336;36.728;-4.414;2023-06-24T12:39:03;7.53;;;3.00;;
47617;SDS011;33336;36.728;-4.414;2023-06-24T12:44:08;4.43;;;2.60;;
47617;SDS011;33336;36.728;-4.414;2023-06-24T12:49:10;7.00;;;2.67;;
47617;SDS011;33336;36.728;-4.414;2023-06-24T12:54:13;6.80;;;2.95;;
47617;SDS011;33336;36.728;-4.414;2023-06-24T12:59:18;4.25;;;2.13;;
47617;SDS011;33336;36.728;-4.414;2023-06-24T13:04:21;5.95;;;2.50;;
47617;SDS011;33336;36.728;-4.414;2023-06-24T13:09:24;6.22;;;2.28;;
47617;SDS011;33336;36.728;-4.414;2023-06-24T13:14:28;4.63;;;2.45;;
47617;SDS011;33336;36.728;-4.414;2023-06-24T13:19:32;3.80;;;2.45;;
47617;SDS011;33336;36.728;-4.414;2023-06-24T13:24:35;7.32;;;3.10;;
47617;SDS011;33336;36.728;-4.414;2023-06-24T13:29:41;4.00;;;1.85;;
47617;SDS011;33336;36.728;-4.414;2023-06-24T13:34:44;4.35;;;2.25;;
47617;SDS011;33336;36.728;-4.414;2023-06-24T13:39:47;8.30;;;2.70;;
47617;SDS011;33336;36.728;-4.414;2023-06-24T13:44:55;5.10;;;2.60;;
47617;SDS011;33336;36.728;-4.414;2023-06-24T13:49:58;5.97;;;2.30;;
47617;SDS011;33336;36.728;-4.414;2023-06-24T13:55:00;3.92;;;2.33;;
47617;SDS011;33336;36.728;-4.414;2023-06-24T14:00:05;4.40;;;2.20;;
47617;SDS011;33336;36.728;-4.414;2023-06-24T14:05:09;6.32;;;2.70;;
47617;SDS011;33336;36.728;-4.414;2023-06-24T14:10:12;4.45;;;2.10;;
47617;SDS011;33336;36.728;-4.414;2023-06-24T14:15:17;3.13;;;2.17;;
47617;SDS011;33336;36.728;-4.414;2023-06-24T14:20:20;6.13;;;2.20;;
47617;SDS011;33336;36.728;-4.414;2023-06-24T14:25:23;4.47;;;2.45;;
47617;SDS011;33336;36.728;-4.414;2023-06-24T14:30:27;4.35;;;2.05;;
47617;SDS011;33336;36.728;-4.414;2023-06-24T14:35:30;6.03;;;2.45;;
47617;SDS011;33336;36.728;-4.414;2023-06-24T14:40:33;3.53;;;2.50;;
47617;SDS011;33336;36.728;-4.414;2023-06-24T14:45:38;6.38;;;2.83;;
47617;SDS011;33336;36.728;-4.414;2023-06-24T14:50:40;7.03;;;2.50;;
47617;SDS011;33336;36.728;-4.414;2023-06-24T14:55:44;3.20;;;2.03;;
47617;SDS011;33336;36.728;-4.414;2023-06-24T15:00:49;5.00;;;2.22;;
47617;SDS011;33336;36.728;-4.414;2023-06-24T15:05:51;5.13;;;1.67;;
47617;SDS011;33336;36.728;-4.414;2023-06-24T15:10:54;4.78;;;2.42;;
47617;SDS011;33336;36.728;-4.414;2023-06-24T15:15:59;4.20;;;2.35;;
47617;SDS011;33336;36.728;-4.414;2023-06-24T15:21:02;5.77;;;2.20;;
47617;SDS011;33336;36.728;-4.414;2023-06-24T15:26:05;4.03;;;2.50;;
47617;SDS011;33336;36.728;-4.414;2023-06-24T15:31:10;3.88;;;2.55;;
47617;SDS011;33336;36.728;-4.414;2023-06-24T15:36:13;4.20;;;2.60;;
47617;SDS011;33336;36.728;-4.414;2023-06-24T15:41:16;3.63;;;2.35;;
47617;SDS011;33336;36.728;-4.414;2023-06-24T15:46:21;4.40;;;2.20;;
47617;SDS011;33336;36.728;-4.414;2023-06-24T15:51:25;5.40;;;2.72;;
47617;SDS011;33336;36.728;-4.414;2023-06-24T15:56:29;5.35;;;2.67;;
47617;SDS011;33336;36.728;-4.414;2023-06-24T16:01:33;2.40;;;1.88;;
47617;SDS011;33336;36.728;-4.414;2023-06-24T16:06:36;4.73;;;2.43;;
47617;SDS011;33336;36.728;-4.414;2023-06-24T16:11:39;3.95;;;2.55;;
47617;SDS011;33336;36.728;-4.414;2023-06-24T16:16:44;4.90;;;2.72;;
47617;SDS011;33336;36.728;-4.414;2023-06-24T16:21:47;5.00;;;2.50;;
47617;SDS011;33336;36.728;-4.414;2023-06-24T16:26:50;7.97;;;2.92;;
47617;SDS011;33336;36.728;-4.414;2023-06-24T16:31:55;4.15;;;2.33;;
47617;SDS011;33336;36.728;-4.414;2023-06-24T16:36:57;4.30;;;3.00;;
47617;SDS011;33336;36.728;-4.414;2023-06-24T16:42:00;7.70;;;3.05;;
47617;SDS011;33336;36.728;-4.414;2023-06-24T16:47:04;4.20;;;2.70;;
47617;SDS011;33336;36.728;-4.414;2023-06-24T16:52:07;4.18;;;2.50;;
47617;SDS011;33336;36.728;-4.414;2023-06-24T16:57:10;6.68;;;3.20;;
47617;SDS011;33336;36.728;-4.414;2023-06-24T17:02:15;5.00;;;3.00;;
47617;SDS011;33336;36.728;-4.414;2023-06-24T17:07:18;7.53;;;2.88;;
47617;SDS011;33336;36.728;-4.414;2023-06-24T17:12:23;5.30;;;3.08;;
47617;SDS011;33336;36.728;-4.414;2023-06-24T17:17:27;6.55;;;2.92;;
47617;SDS011;33336;36.728;-4.414;2023-06-24T17:22:30;4.75;;;2.30;;
47617;SDS011;33336;36.728;-4.414;2023-06-24T17:27:33;5.80;;;2.72;;
47617;SDS011;33336;36.728;-4.414;2023-06-24T17:32:37;6.03;;;3.10;;
47617;SDS011;33336;36.728;-4.414;2023-06-24T17:37:41;4.05;;;2.10;;
47617;SDS011;33336;36.728;-4.414;2023-06-24T17:42:44;6.22;;;2.60;;
47617;SDS011;33336;36.728;-4.414;2023-06-24T17:47:49;4.53;;;2.30;;
47617;SDS011;33336;36.728;-4.414;2023-06-24T17:52:53;5.03;;;2.38;;
47617;SDS011;33336;36.728;-4.414;2023-06-24T17:57:56;5.68;;;2.58;;
47617;SDS011;33336;36.728;-4.414;2023-06-24T18:03:01;4.10;;;2.60;;
47617;SDS011;33336;36.728;-4.414;2023-06-24T18:08:04;4.97;;;2.60;;
47617;SDS011;33336;36.728;-4.414;2023-06-24T18:13:06;4.97;;;2.35;;
47617;SDS011;33336;36.728;-4.414;2023-06-24T18:18:11;7.95;;;2.50;;
47617;SDS011;33336;36.728;-4.414;2023-06-24T18:23:13;3.88;;;2.35;;
47617;SDS011;33336;36.728;-4.414;2023-06-24T18:28:17;6.97;;;2.47;;
47617;SDS011;33336;36.728;-4.414;2023-06-24T18:33:21;5.50;;;2.53;;
47617;SDS011;33336;36.728;-4.414;2023-06-24T18:38:25;4.50;;;2.35;;
47617;SDS011;33336;36.728;-4.414;2023-06-24T18:43:28;4.80;;;2.63;;
47617;SDS011;33336;36.728;-4.414;2023-06-24T18:48:33;11.07;;;2.33;;
47617;SDS011;33336;36.728;-4.414;2023-06-24T18:53:35;4.45;;;2.45;;
47617;SDS011;33336;36.728;-4.414;2023-06-24T18:58:39;4.47;;;2.45;;
47617;SDS011;33336;36.728;-4.414;2023-06-24T19:03:43;4.95;;;2.55;;
47617;SDS011;33336;36.728;-4.414;2023-06-24T19:08:46;8.00;;;2.47;;
47617;SDS011;33336;36.728;-4.414;2023-06-24T19:13:52;8.68;;;2.80;;
47617;SDS011;33336;36.728;-4.414;2023-06-24T19:18:57;5.55;;;2.70;;
47617;SDS011;33336;36.728;-4.414;2023-06-24T19:24:02;4.97;;;2.92;;
47617;SDS011;33336;36.728;-4.414;2023-06-24T19:29:06;4.47;;;2.60;;
47617;SDS011;33336;36.728;-4.414;2023-06-24T19:34:10;10.88;;;3.40;;
47617;SDS011;33336;36.728;-4.414;2023-06-24T19:39:13;5.60;;;2.50;;
47617;SDS011;33336;36.728;-4.414;2023-06-24T19:44:17;6.40;;;2.65;;
47617;SDS011;33336;36.728;-4.414;2023-06-24T19:49:21;6.13;;;3.08;;
47617;SDS011;33336;36.728;-4.414;2023-06-24T19:54:24;5.65;;;2.92;;
47617;SDS011;33336;36.728;-4.414;2023-06-24T19:59:27;6.47;;;3.30;;
47617;SDS011;33336;36.728;-4.414;2023-06-24T20:04:32;6.10;;;2.70;;
47617;SDS011;33336;36.728;-4.414;2023-06-24T20:09:34;7.00;;;2.60;;
47617;SDS011;33336;36.728;-4.414;2023-06-24T20:14:38;6.00;;;3.08;;
47617;SDS011;33336;36.728;-4.414;2023-06-24T20:19:42;8.15;;;3.10;;
47617;SDS011;33336;36.728;-4.414;2023-06-24T20:24:46;6.63;;;2.88;;
47617;SDS011;33336;36.728;-4.414;2023-06-24T20:29:49;3.75;;;2.90;;
47617;SDS011;33336;36.728;-4.414;2023-06-24T20:34:54;7.80;;;2.78;;
47617;SDS011;33336;36.728;-4.414;2023-06-24T20:39:56;5.13;;;2.88;;
47617;SDS011;33336;36.728;-4.414;2023-06-24T20:44:59;6.15;;;2.58;;
47617;SDS011;33336;36.728;-4.414;2023-06-24T20:50:04;5.60;;;3.42;;
47617;SDS011;33336;36.728;-4.414;2023-06-24T20:55:08;4.57;;;2.90;;
47617;SDS011;33336;36.728;-4.414;2023-06-24T21:00:11;5.82;;;3.30;;
47617;SDS011;33336;36.728;-4.414;2023-06-24T21:05:17;7.97;;;3.25;;
47617;SDS011;33336;36.728;-4.414;2023-06-24T21:10:19;7.47;;;3.25;;
47617;SDS011;33336;36.728;-4.414;2023-06-24T21:15:22;7.60;;;3.35;;
47617;SDS011;33336;36.728;-4.414;2023-06-24T21:20:26;5.25;;;3.28;;
47617;SDS011;33336;36.728;-4.414;2023-06-24T21:25:29;7.80;;;4.15;;
47617;SDS011;33336;36.728;-4.414;2023-06-24T21:30:32;9.65;;;4.07;;
47617;SDS011;33336;36.728;-4.414;2023-06-24T21:35:38;16.15;;;4.30;;
47617;SDS011;33336;36.728;-4.414;2023-06-24T21:40:42;6.75;;;3.55;;
47617;SDS011;33336;36.728;-4.414;2023-06-24T21:45:45;9.07;;;4.45;;
47617;SDS011;33336;36.728;-4.414;2023-06-24T21:50:49;7.45;;;4.28;;
47617;SDS011;33336;36.728;-4.414;2023-06-24T21:55:53;10.40;;;4.43;;
47617;SDS011;33336;36.728;-4.414;2023-06-24T22:00:56;7.82;;;3.58;;
47617;SDS011;33336;36.728;-4.414;2023-06-24T22:06:00;7.40;;;4.30;;
47617;SDS011;33336;36.728;-4.414;2023-06-24T22:11:03;7.28;;;4.65;;
47617;SDS011;33336;36.728;-4.414;2023-06-24T22:16:06;4.18;;;3.08;;
47617;SDS011;33336;36.728;-4.414;2023-06-24T22:21:12;5.55;;;3.38;;
47617;SDS011;33336;36.728;-4.414;2023-06-24T22:26:16;10.60;;;4.20;;
47617;SDS011;33336;36.728;-4.414;2023-06-24T22:31:19;5.93;;;3.45;;
47617;SDS011;33336;36.728;-4.414;2023-06-24T22:36:24;7.93;;;3.40;;
47617;SDS011;33336;36.728;-4.414;2023-06-24T22:41:26;6.40;;;3.58;;
47617;SDS011;33336;36.728;-4.414;2023-06-24T22:46:29;9.05;;;3.63;;
47617;SDS011;33336;36.728;-4.414;2023-06-24T22:51:33;6.40;;;4.07;;
47617;SDS011;33336;36.728;-4.414;2023-06-24T22:56:36;7.55;;;3.83;;
47617;SDS011;33336;36.728;-4.414;2023-06-24T23:01:39;5.13;;;3.35;;
47617;SDS011;33336;36.728;-4.414;2023-06-24T23:06:43;8.95;;;3.35;;
47617;SDS011;33336;36.728;-4.414;2023-06-24T23:11:47;7.18;;;2.78;;
47617;SDS011;33336;36.728;-4.414;2023-06-24T23:16:52;5.97;;;3.53;;
47617;SDS011;33336;36.728;-4.414;2023-06-24T23:21:57;8.73;;;4.40;;
47617;SDS011;33336;36.728;-4.414;2023-06-24T23:27:03;5.70;;;4.18;;
47617;SDS011;33336;36.728;-4.414;2023-06-24T23:32:09;7.85;;;4.05;;
47617;SDS011;33336;36.728;-4.414;2023-06-24T23:37:15;12.35;;;3.60;;
47617;SDS011;33336;36.728;-4.414;2023-06-24T23:42:18;8.57;;;2.83;;
47617;SDS011;33336;36.728;-4.414;2023-06-24T23:47:22;6.30;;;3.20;;
47617;SDS011;33336;36.728;-4.414;2023-06-24T23:52:26;6.13;;;3.30;;
47617;SDS011;33336;36.728;-4.414;2023-06-24T23:57:30;8.85;;;3.65;;
